Time;durP1;ratioP1;P1;durP2;ratioP2;P2;SDS_P1;SDS_P2;PMS_P1;PMS_P2;Temp;Humidity;BMP_temperature;BMP_pressure;BME280_temperature;BME280_humidity;BME280_pressure;Samples;Min_cycle;Max_cycle;Signal;HPM_P1;HPM_P2
2022/03/23 00:02:09;;;;;;;6.47;2.65;;;7.30;69.20;;;;;;6283853;22;20013;-86
2022/03/23 00:05:10;;;;;;;5.63;2.67;;;7.40;69.00;;;;;;6276905;22;20008;-87
2022/03/23 00:11:19;;;;;;;12.90;2.83;;;7.20;68.70;;;;;;6255591;22;20007;-87
2022/03/23 00:20:47;;;;;;;;;;;;;;;;;;;;;
2022/03/23 00:26:26;;;;;;;9.07;2.97;;;7.10;69.40;;;;;;6375299;22;20018;-85
2022/03/23 00:29:23;;;;;;;6.88;3.47;;;7.10;69.80;;;;;;6345184;22;20011;-85
2022/03/23 00:39:53;;;;;;;;;;;;;;;;;;;;;
2022/03/23 00:42:34;;;;;;;6.45;3.35;;;6.90;71.00;;;;;;6334136;22;20006;-86
2022/03/23 00:45:32;;;;;;;7.18;3.60;;;7.10;71.60;;;;;;6323054;22;20009;-86
2022/03/23 00:48:23;;;;;;;7.95;3.38;;;6.90;71.90;;;;;;6318768;22;20030;-87
2022/03/23 00:51:25;;;;;;;12.05;4.03;;;6.90;72.30;;;;;;6316711;22;20006;-85
2022/03/23 00:54:34;;;;;;;;;;;;;;;;;;;;;
2022/03/23 00:58:04;;;;;;;9.73;4.18;;;6.80;72.80;;;;;;6348338;22;20022;-87
2022/03/23 01:01:02;;;;;;;8.40;3.67;;;6.70;73.60;;;;;;6129560;23;20002;-84
2022/03/23 01:04:15;;;;;;;10.63;4.18;;;6.70;74.10;;;;;;6113473;23;20025;-86
2022/03/23 01:06:59;;;;;;;;;;;;;;;;;;;;;
2022/03/23 01:10:26;;;;;;;;;;;;;;;;;;;;;
2022/03/23 01:13:20;;;;;;;8.95;3.85;;;6.40;73.10;;;;;;6226363;23;20023;-87
2022/03/23 01:25:54;;;;;;;13.35;4.30;;;6.30;76.20;;;;;;6359589;22;20015;-87
2022/03/23 01:30:48;;;;;;;7.85;3.45;;;6.30;78.00;;;;;;6367734;22;19914;-90
2022/03/23 01:33:17;;;;;;;11.07;4.35;;;6.30;78.10;;;;;;6343641;22;20070;-91
2022/03/23 01:35:43;;;;;;;11.27;4.78;;;6.30;77.60;;;;;;6344862;22;20032;-91
2022/03/23 01:38:11;;;;;;;10.45;4.40;;;6.50;77.80;;;;;;6344465;22;20006;-91
2022/03/23 01:40:38;;;;;;;10.35;4.32;;;6.20;78.30;;;;;;6343672;22;20059;-91
2022/03/23 01:43:06;;;;;;;9.35;4.22;;;6.20;78.80;;;;;;6313481;22;20007;-90
2022/03/23 01:45:34;;;;;;;9.35;4.25;;;6.20;77.30;;;;;;6312881;22;19999;-90
2022/03/23 01:48:04;;;;;;;10.43;4.55;;;6.10;77.40;;;;;;6313282;22;20003;-91
2022/03/23 01:50:34;;;;;;;10.35;4.35;;;6.00;77.20;;;;;;6310879;22;20021;-92
2022/03/23 01:53:03;;;;;;;8.15;3.80;;;6.10;77.90;;;;;;6313792;22;20006;-91
2022/03/23 01:55:31;;;;;;;7.88;3.92;;;6.30;78.70;;;;;;6313019;22;20003;-91
2022/03/23 01:57:57;;;;;;;8.52;4.35;;;6.10;79.00;;;;;;6310339;22;20002;-92
2022/03/23 02:00:30;;;;;;;10.55;4.45;;;6.20;79.40;;;;;;6340111;22;20060;-91
2022/03/23 02:02:57;;;;;;;9.10;4.70;;;6.10;79.30;;;;;;6313834;22;20003;-90
2022/03/23 02:05:26;;;;;;;9.60;4.43;;;6.10;79.50;;;;;;6340774;22;20508;-92
2022/03/23 02:07:55;;;;;;;8.77;4.28;;;6.00;80.20;;;;;;6312784;22;20028;-91
2022/03/23 02:10:21;;;;;;;9.70;4.50;;;6.20;80.20;;;;;;6310664;22;20052;-91
2022/03/23 02:12:46;;;;;;;10.88;4.70;;;6.00;80.30;;;;;;6313089;22;20007;-90
2022/03/23 02:15:28;;;;;;;11.65;4.70;;;6.00;80.20;;;;;;6313039;22;20006;-92
2022/03/23 02:17:54;;;;;;;10.18;3.97;;;6.10;80.20;;;;;;6313710;22;20007;-91
2022/03/23 02:20:26;;;;;;;9.68;4.75;;;5.90;80.90;;;;;;6313471;22;20002;-91
2022/03/23 02:22:55;;;;;;;10.27;4.68;;;5.80;80.90;;;;;;6313887;22;20093;-92
2022/03/23 02:25:26;;;;;;;10.25;4.88;;;5.80;81.00;;;;;;6311321;22;20006;-90
2022/03/23 02:27:57;;;;;;;11.02;5.15;;;6.00;82.00;;;;;;6313619;22;20030;-92
2022/03/23 02:30:30;;;;;;;11.02;4.65;;;5.80;81.80;;;;;;6312698;22;20147;-91
2022/03/23 02:33:04;;;;;;;10.50;4.43;;;6.50;82.00;;;;;;6342055;22;20052;-91
2022/03/23 02:35:30;;;;;;;12.35;4.75;;;5.70;81.50;;;;;;6312923;22;20009;-91
2022/03/23 02:37:58;;;;;;;13.70;5.25;;;6.00;81.70;;;;;;6315509;22;19999;-91
2022/03/23 02:40:35;;;;;;;15.35;5.22;;;6.00;81.60;;;;;;6315769;22;20002;-91
2022/03/23 02:43:03;;;;;;;8.98;4.57;;;5.80;81.30;;;;;;6342795;22;20086;-92
2022/03/23 02:45:29;;;;;;;10.02;4.95;;;5.70;81.70;;;;;;6339392;22;20006;-92
2022/03/23 02:47:56;;;;;;;10.65;4.88;;;5.70;82.10;;;;;;6314514;22;20089;-93
2022/03/23 02:50:22;;;;;;;10.10;4.68;;;5.60;82.50;;;;;;6313970;22;20030;-91
2022/03/23 03:01:57;;;;;;;8.60;4.03;;;5.50;82.50;;;;;;6337183;22;20026;-90
2022/03/23 03:04:29;;;;;;;10.35;4.20;;;5.40;82.50;;;;;;6314029;22;20021;-91
2022/03/23 03:06:57;;;;;;;11.45;4.40;;;5.50;82.40;;;;;;6314934;22;20013;-91
2022/03/23 03:09:25;;;;;;;10.10;4.57;;;5.30;82.40;;;;;;6313313;22;20153;-91
2022/03/23 03:11:56;;;;;;;9.52;4.22;;;5.30;82.50;;;;;;6312700;22;20429;-92
2022/03/23 03:14:22;;;;;;;8.10;3.80;;;5.10;82.90;;;;;;6313037;22;20239;-90
2022/03/23 03:16:48;;;;;;;8.27;4.20;;;5.30;83.20;;;;;;6313322;22;20011;-92
2022/03/23 03:19:17;;;;;;;11.55;4.22;;;5.60;83.70;;;;;;6312837;22;20034;-92
2022/03/23 03:21:43;;;;;;;10.15;4.70;;;5.20;83.50;;;;;;6313074;22;20007;-92
2022/03/23 03:24:12;;;;;;;7.88;4.38;;;5.20;83.10;;;;;;6340070;22;20054;-90
2022/03/23 03:26:43;;;;;;;8.87;4.67;;;5.20;84.10;;;;;;6313455;22;20033;-92
2022/03/23 03:29:09;;;;;;;9.67;4.13;;;5.20;84.20;;;;;;6312554;22;20011;-90
2022/03/23 03:31:43;;;;;;;9.50;3.97;;;5.20;85.00;;;;;;6340210;22;20630;-92
2022/03/23 03:34:12;;;;;;;9.23;4.25;;;5.00;84.20;;;;;;6312982;22;19999;-89
2022/03/23 03:36:37;;;;;;;9.33;4.43;;;5.00;84.50;;;;;;6314168;22;20003;-92
2022/03/23 03:39:08;;;;;;;11.23;4.50;;;5.20;84.60;;;;;;6312744;22;20101;-91
2022/03/23 03:41:37;;;;;;;10.70;4.43;;;5.10;84.60;;;;;;6339863;22;20058;-91
2022/03/23 03:44:13;;;;;;;;;;;;;;;;;;;;;
2022/03/23 03:46:42;;;;;;;17.30;4.37;;;4.90;85.30;;;;;;6340680;22;20106;-92
2022/03/23 03:49:08;;;;;;;11.77;4.70;;;5.00;85.80;;;;;;6311754;22;20425;-91
2022/03/23 03:51:34;;;;;;;11.13;4.93;;;4.80;85.60;;;;;;6312885;22;20007;-90
2022/03/23 03:54:00;;;;;;;10.07;4.40;;;4.80;86.30;;;;;;6312861;22;20006;-91
2022/03/23 03:56:26;;;;;;;11.83;4.60;;;4.90;86.30;;;;;;6313308;22;20006;-91
2022/03/23 03:58:54;;;;;;;9.73;4.67;;;5.00;86.70;;;;;;6340230;22;20056;-91
2022/03/23 04:01:23;;;;;;;8.50;4.40;;;5.10;87.40;;;;;;6308769;22;20007;-90
2022/03/23 04:03:51;;;;;;;11.07;5.13;;;4.70;87.80;;;;;;6313098;22;20011;-91
2022/03/23 04:06:22;;;;;;;12.45;4.75;;;4.70;88.50;;;;;;6312921;22;20006;-91
2022/03/23 04:08:48;;;;;;;11.00;5.03;;;4.70;88.90;;;;;;6312787;22;19998;-92
2022/03/23 04:11:18;;;;;;;9.00;4.87;;;4.80;89.00;;;;;;6312150;22;20013;-90
2022/03/23 04:13:47;;;;;;;12.40;5.17;;;4.60;88.80;;;;;;6340464;22;20003;-92
2022/03/23 04:16:21;;;;;;;15.37;4.73;;;4.50;89.10;;;;;;6313621;22;20015;-90
2022/03/23 04:18:49;;;;;;;10.17;4.80;;;4.50;90.00;;;;;;6312023;22;20002;-92
2022/03/23 04:21:15;;;;;;;10.63;4.93;;;5.00;90.30;;;;;;6313433;22;20401;-93
2022/03/23 04:23:41;;;;;;;11.83;5.10;;;4.40;90.30;;;;;;6312008;22;20010;-92
2022/03/23 04:26:09;;;;;;;11.00;5.17;;;5.00;90.70;;;;;;6340854;22;19995;-90
2022/03/23 04:28:41;;;;;;;10.17;4.73;;;4.50;90.90;;;;;;6313662;22;20029;-93
2022/03/23 04:31:15;;;;;;;12.05;4.57;;;4.40;91.10;;;;;;6344229;22;20349;-91
2022/03/23 04:33:50;;;;;;;9.77;4.23;;;4.40;91.30;;;;;;6314852;22;20006;-91
2022/03/23 04:36:21;;;;;;;9.93;5.10;;;4.30;91.60;;;;;;6312085;22;20014;-92
2022/03/23 04:38:49;;;;;;;10.33;5.00;;;4.40;91.80;;;;;;6312281;22;20425;-91
2022/03/23 04:41:24;;;;;;;13.57;5.30;;;4.00;92.00;;;;;;6313146;22;20185;-92
2022/03/23 04:43:50;;;;;;;10.87;4.60;;;4.20;92.30;;;;;;6314021;22;20006;-91
2022/03/23 04:46:24;;;;;;;9.40;4.70;;;4.10;92.60;;;;;;6312433;22;20037;-91
2022/03/23 04:48:49;;;;;;;15.03;5.30;;;4.10;93.00;;;;;;6313306;22;20345;-91
2022/03/23 04:51:17;;;;;;;15.77;5.50;;;4.10;93.10;;;;;;6311663;22;20009;-91
2022/03/23 04:53:46;;;;;;;11.00;5.23;;;4.00;93.20;;;;;;6312840;22;20030;-91
2022/03/23 04:56:12;;;;;;;12.43;5.57;;;4.00;93.70;;;;;;6314380;22;20383;-91
2022/03/23 04:58:43;;;;;;;12.17;5.50;;;4.10;94.00;;;;;;6312338;22;20013;-91
2022/03/23 05:01:11;;;;;;;13.30;5.50;;;3.90;94.40;;;;;;6309441;22;20007;-92
2022/03/23 05:03:39;;;;;;;12.90;5.50;;;3.90;94.60;;;;;;6313252;22;20047;-92
2022/03/23 05:06:21;;;;;;;11.53;5.33;;;3.90;95.20;;;;;;6313307;22;20067;-91
2022/03/23 05:08:46;;;;;;;10.67;5.57;;;3.90;95.20;;;;;;6314479;22;19998;-90
2022/03/23 05:11:12;;;;;;;10.33;4.63;;;4.10;95.80;;;;;;6314465;22;20081;-92
2022/03/23 05:13:38;;;;;;;12.93;6.30;;;3.90;95.90;;;;;;6336741;22;20029;-91
2022/03/23 05:16:09;;;;;;;12.63;5.30;;;3.90;95.80;;;;;;6307708;22;20014;-90
2022/03/23 05:18:43;;;;;;;12.52;5.38;;;3.80;96.10;;;;;;6307548;22;20037;-92
2022/03/23 05:21:08;;;;;;;13.53;5.10;;;3.90;96.50;;;;;;6304694;22;20032;-92
2022/03/23 05:23:34;;;;;;;13.67;6.23;;;4.10;96.40;;;;;;6307589;22;20026;-91
2022/03/23 05:26:14;;;;;;;13.03;5.20;;;3.90;96.60;;;;;;6308801;22;20421;-90
2022/03/23 05:28:39;;;;;;;12.23;5.43;;;3.90;96.80;;;;;;6308387;22;20057;-92
2022/03/23 05:31:26;;;;;;;11.40;5.00;;;3.90;96.90;;;;;;6311776;22;20621;-92
2022/03/23 05:34:33;;;;;;;12.30;5.77;;;4.00;97.40;;;;;;6319373;22;20453;-94
2022/03/23 05:37:24;;;;;;;13.33;6.00;;;3.90;97.30;;;;;;6311293;22;20448;-94
2022/03/23 05:44:31;;;;;;;13.87;5.80;;;4.00;97.90;;;;;;6279880;22;20006;-94
2022/03/23 05:47:52;;;;;;;8.90;5.10;;;3.90;97.70;;;;;;6322760;22;19999;-94
2022/03/23 05:50:33;;;;;;;13.40;5.13;;;4.00;97.80;;;;;;6305471;22;20006;-91
2022/03/23 05:53:53;;;;;;;;;;;;;;;;;;;;;
2022/03/23 05:57:20;;;;;;;12.73;5.47;;;4.00;98.20;;;;;;6348013;22;20023;-92
2022/03/23 06:00:00;;;;;;;10.20;5.43;;;4.10;98.20;;;;;;6318262;22;20086;-91
2022/03/23 06:02:49;;;;;;;11.60;5.47;;;4.10;97.90;;;;;;6317331;22;20089;-92
2022/03/23 06:19:01;;;;;;;12.83;5.37;;;4.30;98.40;;;;;;6282988;22;20047;-91
2022/03/23 06:21:37;;;;;;;13.13;5.77;;;4.40;98.60;;;;;;6313507;22;20014;-92
2022/03/23 06:24:05;;;;;;;13.93;6.43;;;5.00;98.50;;;;;;6313805;22;20030;-91
2022/03/23 06:26:36;;;;;;;12.53;6.10;;;4.70;98.00;;;;;;6313761;22;19995;-92
2022/03/23 06:29:08;;;;;;;13.90;6.37;;;4.80;98.00;;;;;;6313465;22;20003;-92
2022/03/23 06:32:27;;;;;;;;;;;;;;;;;;;;;
2022/03/23 06:35:16;;;;;;;11.10;5.13;;;4.80;97.80;;;;;;6340433;22;20078;-92
2022/03/23 06:37:55;;;;;;;13.93;5.53;;;5.10;97.70;;;;;;6308498;22;20003;-93
2022/03/23 06:40:27;;;;;;;16.13;6.57;;;4.90;97.50;;;;;;6312658;22;20025;-92
2022/03/23 06:42:53;;;;;;;13.88;5.53;;;5.10;97.30;;;;;;6311594;22;20158;-91
2022/03/23 06:45:19;;;;;;;15.50;6.60;;;5.50;97.30;;;;;;6311178;22;20090;-91
2022/03/23 06:47:48;;;;;;;10.57;6.07;;;5.50;97.30;;;;;;6312162;22;20037;-92
2022/03/23 06:50:16;;;;;;;13.67;6.17;;;5.30;97.00;;;;;;6311624;22;20012;-91
2022/03/23 06:52:44;;;;;;;12.17;5.60;;;5.30;96.20;;;;;;6304622;22;20011;-92
2022/03/23 06:55:16;;;;;;;12.87;5.93;;;5.40;96.30;;;;;;6337069;22;20046;-92
2022/03/23 06:57:45;;;;;;;14.55;5.72;;;5.50;96.20;;;;;;6309121;22;20017;-92
2022/03/23 07:00:22;;;;;;;15.03;5.83;;;5.50;96.40;;;;;;6311728;22;20009;-90
2022/03/23 07:02:59;;;;;;;11.60;5.67;;;5.50;96.40;;;;;;6308218;22;20010;-92
2022/03/23 07:05:45;;;;;;;10.93;4.83;;;5.60;96.80;;;;;;6312157;22;20080;-91
2022/03/23 07:11:04;;;;;;;15.27;6.23;;;5.70;96.60;;;;;;6341799;22;20037;-92
2022/03/23 07:13:39;;;;;;;15.30;6.47;;;5.70;96.60;;;;;;6313537;22;20003;-92
2022/03/23 07:16:14;;;;;;;11.93;5.90;;;5.80;96.70;;;;;;6340917;22;20014;-92
2022/03/23 07:18:42;;;;;;;11.27;5.77;;;5.60;96.90;;;;;;6341358;22;20067;-92
2022/03/23 07:21:26;;;;;;;13.30;6.70;;;5.70;96.80;;;;;;6312384;22;20034;-92
2022/03/23 07:23:55;;;;;;;18.30;7.50;;;5.80;96.70;;;;;;6312487;22;20002;-92
2022/03/23 07:26:22;;;;;;;12.30;6.33;;;5.80;97.00;;;;;;6311729;22;20079;-92
2022/03/23 07:28:48;;;;;;;12.73;6.73;;;6.00;96.90;;;;;;6312628;22;20421;-91
2022/03/23 07:31:25;;;;;;;15.23;6.70;;;5.90;96.70;;;;;;6312060;22;20068;-91
2022/03/23 07:34:02;;;;;;;12.80;6.20;;;6.00;96.60;;;;;;6311896;22;20486;-92
2022/03/23 07:36:32;;;;;;;14.63;6.20;;;6.10;96.50;;;;;;6337742;22;20081;-91
2022/03/23 07:38:58;;;;;;;13.40;6.03;;;6.30;96.60;;;;;;6309139;22;20021;-90
2022/03/23 07:41:24;;;;;;;16.37;6.80;;;6.30;96.50;;;;;;6337178;22;20484;-92
2022/03/23 07:43:50;;;;;;;14.93;6.13;;;6.60;95.90;;;;;;6336754;22;20109;-90
2022/03/23 07:54:33;;;;;;;;;;;;;;;;;;;;;
2022/03/23 08:04:05;;;;;;;14.00;6.70;;;6.70;95.60;;;;;;6239976;23;20385;-85
2022/03/23 08:06:34;;;;;;;12.93;6.27;;;6.60;95.80;;;;;;6217220;23;20004;-83
2022/03/23 08:09:02;;;;;;;14.00;7.07;;;6.90;96.00;;;;;;6221413;23;20043;-85
2022/03/23 08:11:29;;;;;;;18.88;7.47;;;7.00;96.00;;;;;;6224338;23;20087;-85
2022/03/23 08:13:55;;;;;;;13.52;6.55;;;6.90;96.10;;;;;;6286460;22;20007;-82
2022/03/23 08:16:24;;;;;;;13.30;6.80;;;7.20;95.90;;;;;;6345964;22;19995;-83
2022/03/23 08:18:57;;;;;;;13.67;6.80;;;7.30;95.50;;;;;;6318114;22;20067;-86
2022/03/23 08:21:28;;;;;;;13.02;7.45;;;7.60;95.10;;;;;;6345208;22;20024;-84
2022/03/23 08:23:57;;;;;;;14.90;7.32;;;7.60;94.50;;;;;;6316825;22;20011;-85
2022/03/23 08:26:25;;;;;;;15.73;6.90;;;7.80;94.90;;;;;;6317096;22;20033;-83
2022/03/23 08:28:53;;;;;;;15.40;6.72;;;8.00;95.10;;;;;;6318032;22;20022;-85
2022/03/23 08:31:19;;;;;;;15.70;7.47;;;8.30;94.80;;;;;;6345327;22;20017;-82
2022/03/23 08:33:45;;;;;;;13.10;7.00;;;8.00;93.90;;;;;;6316350;22;20247;-85
2022/03/23 08:36:11;;;;;;;15.63;6.47;;;8.70;93.50;;;;;;6317667;22;20330;-85
2022/03/23 08:38:37;;;;;;;16.77;7.05;;;8.40;93.90;;;;;;6317619;22;20597;-86
2022/03/23 08:41:04;;;;;;;15.10;6.95;;;8.70;94.50;;;;;;6345413;22;20003;-84
2022/03/23 08:43:30;;;;;;;11.90;6.90;;;8.70;94.20;;;;;;6344486;22;19999;-85
2022/03/23 08:45:56;;;;;;;13.57;6.70;;;8.90;93.70;;;;;;6347322;22;20770;-86
2022/03/23 08:48:25;;;;;;;12.88;6.13;;;9.10;93.70;;;;;;6318560;22;20010;-86
2022/03/23 08:50:51;;;;;;;12.05;6.90;;;9.20;93.30;;;;;;6346161;22;20048;-86
2022/03/23 08:53:18;;;;;;;11.77;5.90;;;9.50;93.40;;;;;;6345494;22;20003;-83
2022/03/23 08:55:44;;;;;;;12.68;6.60;;;9.70;93.00;;;;;;6345561;22;20036;-85
2022/03/23 08:58:10;;;;;;;11.20;5.65;;;9.90;91.70;;;;;;6317619;22;20010;-85
2022/03/23 09:00:36;;;;;;;14.30;6.40;;;10.00;91.60;;;;;;6317017;22;20003;-86
2022/03/23 09:03:03;;;;;;;11.70;6.72;;;10.30;91.80;;;;;;6316264;22;20013;-84
2022/03/23 09:05:29;;;;;;;13.40;6.40;;;10.70;91.20;;;;;;6314097;22;20489;-85
2022/03/23 09:07:55;;;;;;;12.25;6.93;;;10.70;90.70;;;;;;6341045;22;19999;-83
2022/03/23 09:10:21;;;;;;;13.00;6.45;;;10.90;88.20;;;;;;6317041;22;20014;-85
2022/03/23 09:12:47;;;;;;;14.82;6.40;;;11.20;87.90;;;;;;6344674;22;20098;-86
2022/03/23 09:15:14;;;;;;;10.57;5.57;;;11.30;86.20;;;;;;6316482;22;20017;-85
2022/03/23 09:17:41;;;;;;;13.23;6.07;;;11.40;87.20;;;;;;6315407;22;20030;-83
2022/03/23 09:20:11;;;;;;;10.50;5.72;;;11.60;86.80;;;;;;6344441;22;20010;-85
2022/03/23 09:22:37;;;;;;;11.82;5.55;;;11.70;86.40;;;;;;6344009;22;20002;-84
2022/03/23 09:25:08;;;;;;;12.57;5.80;;;11.90;85.10;;;;;;6314534;22;20013;-84
2022/03/23 09:27:39;;;;;;;11.50;5.47;;;11.90;82.80;;;;;;6314668;22;20433;-86
2022/03/23 09:30:13;;;;;;;11.45;6.18;;;12.10;80.70;;;;;;6315350;22;19999;-84
2022/03/23 09:32:41;;;;;;;8.80;5.70;;;12.30;80.30;;;;;;6316172;22;20013;-86
2022/03/23 09:35:10;;;;;;;12.82;5.40;;;12.60;78.60;;;;;;6340318;22;20426;-85
2022/03/23 09:37:47;;;;;;;10.52;5.65;;;12.50;75.50;;;;;;6341825;22;20003;-85
2022/03/23 09:40:24;;;;;;;10.05;5.50;;;12.70;75.10;;;;;;6342335;22;20015;-86
2022/03/23 09:43:09;;;;;;;9.10;5.22;;;12.90;76.50;;;;;;6313091;22;20002;-85
2022/03/23 09:45:46;;;;;;;10.55;5.47;;;13.10;76.80;;;;;;6312038;22;20033;-85
2022/03/23 09:48:17;;;;;;;9.40;4.90;;;13.30;75.60;;;;;;6313228;22;19999;-85
2022/03/23 09:50:52;;;;;;;10.00;5.05;;;13.60;74.90;;;;;;6341425;22;19995;-85
2022/03/23 09:53:21;;;;;;;9.10;5.32;;;13.80;73.00;;;;;;6310235;22;20444;-85
2022/03/23 09:55:51;;;;;;;9.00;5.38;;;13.70;71.90;;;;;;6337798;22;20011;-84
2022/03/23 09:58:17;;;;;;;8.63;5.15;;;13.50;71.20;;;;;;6337008;22;20007;-84
2022/03/23 10:00:45;;;;;;;10.10;5.72;;;13.80;70.90;;;;;;6336680;22;19999;-84
2022/03/23 10:03:13;;;;;;;9.85;4.95;;;14.00;72.00;;;;;;6308141;22;20003;-84
2022/03/23 10:06:08;;;;;;;9.20;4.85;;;14.40;71.70;;;;;;6309142;22;20431;-84
2022/03/23 10:08:58;;;;;;;8.77;4.65;;;14.40;69.50;;;;;;6336789;22;20360;-84
2022/03/23 10:12:03;;;;;;;9.18;5.40;;;14.60;69.80;;;;;;6308427;22;20006;-85
2022/03/23 10:15:09;;;;;;;8.23;4.90;;;14.70;67.40;;;;;;6287557;22;20006;-85
2022/03/23 10:17:53;;;;;;;9.18;4.60;;;14.80;68.50;;;;;;6309424;22;20010;-85
2022/03/23 10:20:19;;;;;;;7.20;4.15;;;15.00;67.60;;;;;;6336065;22;19995;-85
2022/03/23 10:22:58;;;;;;;7.03;3.80;;;15.20;64.50;;;;;;6335816;22;19999;-84
2022/03/23 10:25:29;;;;;;;11.38;5.45;;;15.30;62.80;;;;;;6335693;22;19991;-84
2022/03/23 10:27:56;;;;;;;9.02;5.00;;;15.30;65.60;;;;;;6308705;22;19999;-85
2022/03/23 10:30:41;;;;;;;10.13;5.47;;;15.40;66.40;;;;;;6335407;22;20075;-83
2022/03/23 10:33:25;;;;;;;7.90;5.00;;;15.60;64.00;;;;;;6308520;22;20017;-85
2022/03/23 10:35:55;;;;;;;6.38;3.90;;;15.60;64.00;;;;;;6335675;22;20347;-85
2022/03/23 10:38:29;;;;;;;7.28;4.07;;;15.80;61.40;;;;;;6307786;22;20013;-85
2022/03/23 10:41:07;;;;;;;7.70;3.60;;;15.90;58.00;;;;;;6336082;22;20073;-85
2022/03/23 10:43:41;;;;;;;7.65;4.50;;;15.80;58.90;;;;;;6334924;22;20018;-84
2022/03/23 10:46:11;;;;;;;7.53;3.90;;;15.90;59.80;;;;;;6307624;22;20006;-85
2022/03/23 10:48:58;;;;;;;7.97;4.18;;;15.90;58.90;;;;;;6307714;22;20006;-85
2022/03/23 10:51:32;;;;;;;8.68;4.07;;;16.00;56.90;;;;;;6308067;22;20390;-85
2022/03/23 10:53:59;;;;;;;5.85;3.35;;;16.00;57.00;;;;;;6307484;22;20022;-85
2022/03/23 10:56:51;;;;;;;5.88;3.63;;;15.90;55.40;;;;;;6308779;22;20037;-86
2022/03/23 10:59:26;;;;;;;6.90;3.83;;;15.90;53.70;;;;;;6300273;22;20029;-85
2022/03/23 11:02:05;;;;;;;5.63;3.30;;;15.90;54.30;;;;;;6310854;22;20003;-85
2022/03/23 11:04:41;;;;;;;5.32;3.08;;;16.10;54.50;;;;;;6338256;22;20007;-86
2022/03/23 11:07:25;;;;;;;6.82;3.72;;;16.40;53.10;;;;;;6339651;22;19999;-85
2022/03/23 11:18:18;;;;;;;9.73;3.60;;;16.60;49.70;;;;;;6338216;22;20009;-84
2022/03/23 11:20:52;;;;;;;5.63;2.70;;;16.70;52.00;;;;;;6338222;22;20017;-86
2022/03/23 11:23:23;;;;;;;7.68;3.65;;;16.60;50.80;;;;;;6336724;22;20007;-85
2022/03/23 11:26:01;;;;;;;7.32;4.03;;;16.80;51.90;;;;;;6338173;22;20066;-86
2022/03/23 11:28:29;;;;;;;7.00;3.45;;;16.80;52.00;;;;;;6310800;22;20327;-86
2022/03/23 11:30:56;;;;;;;7.75;3.60;;;16.90;50.30;;;;;;6338039;22;19999;-85
2022/03/23 11:33:33;;;;;;;9.15;4.13;;;17.00;52.40;;;;;;6309803;22;20002;-84
2022/03/23 11:36:00;;;;;;;5.85;3.40;;;17.40;51.30;;;;;;6310302;22;20141;-86
2022/03/23 11:38:29;;;;;;;6.85;3.28;;;17.30;50.30;;;;;;6337906;22;20058;-85
2022/03/23 11:41:02;;;;;;;7.20;3.63;;;17.50;49.90;;;;;;6310071;22;20006;-85
2022/03/23 11:43:36;;;;;;;7.65;3.30;;;17.50;49.00;;;;;;6309398;22;20309;-85
2022/03/23 11:46:04;;;;;;;5.53;2.60;;;17.50;50.10;;;;;;6310388;22;20007;-85
2022/03/23 11:48:46;;;;;;;7.15;3.20;;;17.60;44.90;;;;;;6309821;22;20037;-85
2022/03/23 11:52:00;;;;;;;6.03;3.53;;;17.80;47.90;;;;;;6310613;22;20488;-85
2022/03/23 11:58:05;;;;;;;6.72;3.25;;;18.00;46.70;;;;;;6340838;22;20041;-85
2022/03/23 12:00:42;;;;;;;5.50;3.10;;;18.00;48.00;;;;;;6306143;22;20070;-86
2022/03/23 12:03:11;;;;;;;9.10;3.05;;;18.10;45.80;;;;;;6339587;22;19999;-85
2022/03/23 12:05:49;;;;;;;5.53;2.95;;;17.90;47.40;;;;;;6339237;22;20044;-85
2022/03/23 12:08:50;;;;;;;5.38;3.28;;;18.00;45.90;;;;;;6338775;22;19999;-86
2022/03/23 12:11:49;;;;;;;5.35;3.13;;;18.00;45.80;;;;;;6339645;22;19999;-85
2022/03/23 12:14:29;;;;;;;7.32;3.60;;;18.00;44.40;;;;;;6309831;22;20003;-84
2022/03/23 12:16:57;;;;;;;5.57;3.05;;;18.00;44.70;;;;;;6309301;22;20337;-85
2022/03/23 12:19:25;;;;;;;5.90;3.30;;;18.00;45.60;;;;;;6337380;22;20038;-84
2022/03/23 12:22:19;;;;;;;7.47;3.67;;;18.00;45.20;;;;;;6309324;22;20076;-85
2022/03/23 12:24:54;;;;;;;6.32;3.70;;;18.20;44.70;;;;;;6287103;22;20007;-85
2022/03/23 12:27:49;;;;;;;5.65;3.10;;;18.40;45.00;;;;;;6309528;22;20010;-85
2022/03/23 12:30:29;;;;;;;6.10;3.53;;;18.50;45.70;;;;;;6309951;22;20475;-85
2022/03/23 12:32:56;;;;;;;6.25;3.25;;;18.50;44.10;;;;;;6308901;22;19991;-85
2022/03/23 12:35:33;;;;;;;7.05;3.80;;;18.50;44.20;;;;;;6335909;22;20003;-85
2022/03/23 12:38:16;;;;;;;5.68;3.38;;;18.10;44.10;;;;;;6336971;22;20082;-85
2022/03/23 12:40:46;;;;;;;6.93;3.25;;;18.30;43.90;;;;;;6309665;22;20030;-85
2022/03/23 12:43:46;;;;;;;5.22;2.90;;;18.60;44.50;;;;;;6308237;22;20003;-85
2022/03/23 12:46:22;;;;;;;5.95;2.80;;;18.70;44.00;;;;;;6308744;22;20007;-85
2022/03/23 12:57:51;;;;;;;6.10;2.92;;;18.70;42.70;;;;;;6337256;22;20072;-84
2022/03/23 13:00:31;;;;;;;6.60;3.40;;;18.90;43.10;;;;;;6336688;22;20069;-85
2022/03/23 13:03:28;;;;;;;6.50;3.17;;;19.40;43.50;;;;;;6316293;22;20011;-85
2022/03/23 13:05:59;;;;;;;4.75;2.95;;;19.60;41.90;;;;;;6307456;22;20113;-85
2022/03/23 13:08:32;;;;;;;;;;;19.60;42.30;;;;;;6309113;22;20003;-85
2022/03/23 13:11:03;;;;;;;7.07;3.55;;;19.30;41.60;;;;;;6309278;22;19902;-85
2022/03/23 13:13:32;;;;;;;6.57;3.05;;;19.50;43.20;;;;;;6336037;22;20010;-85
2022/03/23 13:16:01;;;;;;;4.55;2.80;;;19.70;42.20;;;;;;6309204;22;20018;-85
2022/03/23 13:18:31;;;;;;;7.93;3.85;;;19.90;43.10;;;;;;6336581;22;20074;-86
2022/03/23 13:20:58;;;;;;;8.30;4.00;;;20.20;41.80;;;;;;6336940;22;20070;-85
2022/03/23 13:23:30;;;;;;;5.45;3.33;;;20.20;40.60;;;;;;6308388;22;20010;-85
2022/03/23 13:26:16;;;;;;;5.43;3.20;;;20.40;40.70;;;;;;6300782;22;20003;-85
2022/03/23 13:28:54;;;;;;;6.53;4.18;;;20.40;40.40;;;;;;6306570;22;20003;-87
2022/03/23 13:31:30;;;;;;;6.90;3.53;;;20.60;41.80;;;;;;6311462;22;19999;-87
2022/03/23 13:34:01;;;;;;;7.60;4.40;;;20.80;41.50;;;;;;6311385;22;20086;-87
2022/03/23 13:36:35;;;;;;;5.65;3.60;;;20.80;42.00;;;;;;6311790;22;20429;-87
2022/03/23 13:39:15;;;;;;;5.72;3.17;;;20.80;40.40;;;;;;6310609;22;20007;-89
2022/03/23 13:47:58;;;;;;;9.25;3.78;;;21.30;39.70;;;;;;6336385;22;20009;-88
2022/03/23 13:50:55;;;;;;;5.82;3.25;;;21.00;40.20;;;;;;6219632;23;20064;-88
2022/03/23 13:53:48;;;;;;;7.22;3.88;;;21.40;41.10;;;;;;6220055;23;20047;-87
2022/03/23 13:56:25;;;;;;;6.72;3.85;;;21.40;40.70;;;;;;6240558;22;20390;-88
2022/03/23 13:59:00;;;;;;;7.47;3.63;;;21.20;40.90;;;;;;6318685;22;20007;-87
2022/03/23 14:01:44;;;;;;;5.80;3.60;;;21.20;41.60;;;;;;6320191;22;20066;-88
2022/03/23 14:04:58;;;;;;;6.57;3.95;;;21.30;40.80;;;;;;6320142;22;20092;-88
2022/03/23 14:07:17;;;;;;;6.75;3.40;;;21.40;41.30;;;;;;6324005;22;20006;-87
2022/03/23 14:10:41;;;;;;;6.25;3.53;;;21.40;41.70;;;;;;6314308;22;20007;-87
2022/03/23 14:13:43;;;;;;;7.25;3.50;;;21.60;40.60;;;;;;6218673;23;20052;-87
2022/03/23 14:18:59;;;;;;;5.82;4.07;;;22.00;40.20;;;;;;6375542;22;20019;-87
2022/03/23 14:21:49;;;;;;;7.55;4.10;;;22.50;40.80;;;;;;6355668;22;19998;-87
2022/03/23 14:24:15;;;;;;;6.45;3.92;;;22.50;40.40;;;;;;6328886;22;20398;-85
2022/03/23 14:26:41;;;;;;;6.93;3.60;;;22.50;39.60;;;;;;6307890;22;20306;-84
2022/03/23 14:29:21;;;;;;;7.00;4.10;;;22.60;39.90;;;;;;6307300;22;20025;-84
2022/03/23 14:31:48;;;;;;;8.18;3.70;;;22.50;40.10;;;;;;6336219;22;20010;-85
2022/03/23 14:34:14;;;;;;;8.30;4.22;;;22.80;40.10;;;;;;6322072;22;20019;-84
2022/03/23 14:36:40;;;;;;;5.88;3.40;;;22.70;39.50;;;;;;6279186;22;20082;-85
2022/03/23 14:39:40;;;;;;;7.18;3.85;;;22.90;39.80;;;;;;6278948;22;20283;-85
2022/03/23 14:42:11;;;;;;;7.82;3.78;;;22.70;39.60;;;;;;6263813;22;20006;-85
2022/03/23 14:44:40;;;;;;;7.32;4.30;;;23.00;39.80;;;;;;6280368;22;20011;-85
2022/03/23 14:47:10;;;;;;;7.38;4.13;;;23.00;39.90;;;;;;6280378;22;20364;-85
2022/03/23 14:49:43;;;;;;;6.93;4.38;;;23.10;40.10;;;;;;6308343;22;20003;-85
2022/03/23 14:52:11;;;;;;;6.35;4.00;;;23.10;39.80;;;;;;6307275;22;19996;-85
2022/03/23 14:54:41;;;;;;;6.13;4.00;;;23.10;39.60;;;;;;6306841;22;20004;-84
2022/03/23 14:57:08;;;;;;;8.27;3.72;;;22.90;39.60;;;;;;6307233;22;20083;-85
2022/03/23 14:59:42;;;;;;;7.18;4.15;;;23.10;40.00;;;;;;6307358;22;20000;-85
2022/03/23 15:02:16;;;;;;;6.65;4.03;;;23.20;39.80;;;;;;6279427;22;20082;-85
2022/03/23 15:04:42;;;;;;;6.80;4.10;;;23.10;40.40;;;;;;6278996;22;20137;-85
2022/03/23 15:15:42;;;;;;;7.53;4.50;;;23.00;40.00;;;;;;6305765;22;20516;-84
2022/03/23 15:18:13;;;;;;;7.45;3.83;;;22.70;39.70;;;;;;6276313;22;20086;-85
2022/03/23 15:20:43;;;;;;;6.30;4.13;;;22.60;40.40;;;;;;6307426;22;20065;-86
2022/03/23 15:23:09;;;;;;;8.25;4.18;;;22.60;40.10;;;;;;6279948;22;20010;-85
2022/03/23 15:25:39;;;;;;;7.20;3.83;;;22.40;40.20;;;;;;6279645;22;20019;-86
2022/03/23 15:28:05;;;;;;;6.90;3.88;;;22.40;39.90;;;;;;6306371;22;20002;-86
2022/03/23 15:30:51;;;;;;;6.90;4.20;;;22.70;40.00;;;;;;6306618;22;20496;-86
2022/03/23 15:33:19;;;;;;;5.72;3.90;;;22.80;39.70;;;;;;6305747;22;20004;-87
2022/03/23 15:35:45;;;;;;;7.88;3.80;;;22.70;39.70;;;;;;6303039;22;20010;-86